sensor_id;sensor_type;location;lat;lon;timestamp;P1;durP1;ratioP1;P2;durP2;ratioP2
69126;SDS011;56688;50.234;19.292;2022-07-26T00:00:12;4.10;;;3.00;;
69126;SDS011;56688;50.234;19.292;2022-07-26T00:02:41;5.10;;;3.00;;
69126;SDS011;56688;50.234;19.292;2022-07-26T00:05:15;3.90;;;3.20;;
69126;SDS011;56688;50.234;19.292;2022-07-26T00:07:43;4.70;;;2.70;;
69126;SDS011;56688;50.234;19.292;2022-07-26T00:10:11;4.20;;;2.90;;
69126;SDS011;56688;50.234;19.292;2022-07-26T00:12:39;3.70;;;3.00;;
69126;SDS011;56688;50.234;19.292;2022-07-26T00:15:08;3.40;;;2.80;;
69126;SDS011;56688;50.234;19.292;2022-07-26T00:17:37;4.90;;;3.20;;
69126;SDS011;56688;50.234;19.292;2022-07-26T00:20:04;6.60;;;3.20;;
69126;SDS011;56688;50.234;19.292;2022-07-26T00:22:32;4.30;;;3.40;;
69126;SDS011;56688;50.234;19.292;2022-07-26T00:25:00;6.10;;;3.20;;
69126;SDS011;56688;50.234;19.292;2022-07-26T00:27:28;4.00;;;3.00;;
69126;SDS011;56688;50.234;19.292;2022-07-26T00:29:55;4.60;;;2.80;;
69126;SDS011;56688;50.234;19.292;2022-07-26T00:32:22;5.00;;;3.20;;
69126;SDS011;56688;50.234;19.292;2022-07-26T00:34:50;5.30;;;3.00;;
69126;SDS011;56688;50.234;19.292;2022-07-26T00:37:17;4.60;;;3.20;;
69126;SDS011;56688;50.234;19.292;2022-07-26T00:39:46;6.20;;;3.10;;
69126;SDS011;56688;50.234;19.292;2022-07-26T00:42:14;3.90;;;3.20;;
69126;SDS011;56688;50.234;19.292;2022-07-26T00:44:42;7.30;;;3.90;;
69126;SDS011;56688;50.234;19.292;2022-07-26T00:47:11;5.90;;;3.10;;
69126;SDS011;56688;50.234;19.292;2022-07-26T00:49:39;5.90;;;2.80;;
69126;SDS011;56688;50.234;19.292;2022-07-26T00:52:07;4.90;;;3.10;;
69126;SDS011;56688;50.234;19.292;2022-07-26T00:54:35;8.20;;;3.70;;
69126;SDS011;56688;50.234;19.292;2022-07-26T00:57:04;4.60;;;3.40;;
69126;SDS011;56688;50.234;19.292;2022-07-26T00:59:31;5.50;;;3.50;;
69126;SDS011;56688;50.234;19.292;2022-07-26T01:01:58;5.70;;;3.60;;
69126;SDS011;56688;50.234;19.292;2022-07-26T01:04:26;4.00;;;3.10;;
69126;SDS011;56688;50.234;19.292;2022-07-26T01:06:53;5.40;;;3.30;;
69126;SDS011;56688;50.234;19.292;2022-07-26T01:09:21;5.20;;;3.20;;
69126;SDS011;56688;50.234;19.292;2022-07-26T01:11:48;4.20;;;3.40;;
69126;SDS011;56688;50.234;19.292;2022-07-26T01:14:19;7.00;;;3.50;;
69126;SDS011;56688;50.234;19.292;2022-07-26T01:16:47;7.60;;;3.70;;
69126;SDS011;56688;50.234;19.292;2022-07-26T01:19:14;5.10;;;3.40;;
69126;SDS011;56688;50.234;19.292;2022-07-26T01:21:42;5.60;;;3.50;;
69126;SDS011;56688;50.234;19.292;2022-07-26T01:24:09;8.40;;;3.20;;
69126;SDS011;56688;50.234;19.292;2022-07-26T01:26:37;5.30;;;3.20;;
69126;SDS011;56688;50.234;19.292;2022-07-26T01:29:04;4.00;;;3.20;;
69126;SDS011;56688;50.234;19.292;2022-07-26T01:31:31;4.10;;;3.10;;
69126;SDS011;56688;50.234;19.292;2022-07-26T01:33:58;6.00;;;3.50;;
69126;SDS011;56688;50.234;19.292;2022-07-26T01:36:25;4.90;;;3.60;;
69126;SDS011;56688;50.234;19.292;2022-07-26T01:38:52;5.00;;;3.20;;
69126;SDS011;56688;50.234;19.292;2022-07-26T01:41:20;4.40;;;3.30;;
69126;SDS011;56688;50.234;19.292;2022-07-26T01:44:03;5.00;;;3.30;;
69126;SDS011;56688;50.234;19.292;2022-07-26T01:46:32;4.60;;;3.40;;
69126;SDS011;56688;50.234;19.292;2022-07-26T01:49:00;5.10;;;4.00;;
69126;SDS011;56688;50.234;19.292;2022-07-26T01:51:27;5.50;;;3.70;;
69126;SDS011;56688;50.234;19.292;2022-07-26T01:53:54;4.50;;;3.80;;
69126;SDS011;56688;50.234;19.292;2022-07-26T01:56:22;4.20;;;3.60;;
69126;SDS011;56688;50.234;19.292;2022-07-26T01:58:49;4.90;;;3.60;;
69126;SDS011;56688;50.234;19.292;2022-07-26T02:01:16;6.10;;;3.50;;
69126;SDS011;56688;50.234;19.292;2022-07-26T02:04:03;4.60;;;3.50;;
69126;SDS011;56688;50.234;19.292;2022-07-26T02:06:30;6.90;;;3.60;;
69126;SDS011;56688;50.234;19.292;2022-07-26T02:08:59;4.00;;;3.20;;
69126;SDS011;56688;50.234;19.292;2022-07-26T02:11:27;5.20;;;3.70;;
69126;SDS011;56688;50.234;19.292;2022-07-26T02:13:54;5.10;;;3.80;;
69126;SDS011;56688;50.234;19.292;2022-07-26T02:16:20;6.40;;;3.70;;
69126;SDS011;56688;50.234;19.292;2022-07-26T02:18:48;5.70;;;3.70;;
69126;SDS011;56688;50.234;19.292;2022-07-26T02:21:15;7.80;;;3.70;;
69126;SDS011;56688;50.234;19.292;2022-07-26T02:23:43;5.40;;;3.80;;
69126;SDS011;56688;50.234;19.292;2022-07-26T02:26:10;6.20;;;4.20;;
69126;SDS011;56688;50.234;19.292;2022-07-26T02:28:36;7.70;;;4.30;;
69126;SDS011;56688;50.234;19.292;2022-07-26T02:31:04;6.20;;;4.10;;
69126;SDS011;56688;50.234;19.292;2022-07-26T02:33:31;8.80;;;4.50;;
69126;SDS011;56688;50.234;19.292;2022-07-26T02:35:57;5.60;;;3.70;;
69126;SDS011;56688;50.234;19.292;2022-07-26T02:38:24;6.60;;;4.20;;
69126;SDS011;56688;50.234;19.292;2022-07-26T02:40:51;7.00;;;4.00;;
69126;SDS011;56688;50.234;19.292;2022-07-26T02:43:18;7.70;;;4.00;;
69126;SDS011;56688;50.234;19.292;2022-07-26T02:45:45;8.50;;;4.20;;
69126;SDS011;56688;50.234;19.292;2022-07-26T02:48:27;5.20;;;4.00;;
69126;SDS011;56688;50.234;19.292;2022-07-26T02:50:54;6.10;;;3.90;;
69126;SDS011;56688;50.234;19.292;2022-07-26T02:53:21;9.20;;;4.50;;
69126;SDS011;56688;50.234;19.292;2022-07-26T02:55:48;5.90;;;4.00;;
69126;SDS011;56688;50.234;19.292;2022-07-26T02:58:15;5.80;;;3.50;;
69126;SDS011;56688;50.234;19.292;2022-07-26T03:00:42;7.20;;;3.90;;
69126;SDS011;56688;50.234;19.292;2022-07-26T03:03:08;6.60;;;4.10;;
69126;SDS011;56688;50.234;19.292;2022-07-26T03:05:39;5.60;;;3.50;;
69126;SDS011;56688;50.234;19.292;2022-07-26T03:08:07;5.70;;;3.90;;
69126;SDS011;56688;50.234;19.292;2022-07-26T03:10:34;8.40;;;4.10;;
69126;SDS011;56688;50.234;19.292;2022-07-26T03:13:01;6.60;;;3.70;;
69126;SDS011;56688;50.234;19.292;2022-07-26T03:15:28;5.70;;;3.60;;
69126;SDS011;56688;50.234;19.292;2022-07-26T03:17:55;7.00;;;3.40;;
69126;SDS011;56688;50.234;19.292;2022-07-26T03:20:22;5.00;;;3.90;;
69126;SDS011;56688;50.234;19.292;2022-07-26T03:22:49;6.60;;;4.00;;
69126;SDS011;56688;50.234;19.292;2022-07-26T03:25:16;6.60;;;3.90;;
69126;SDS011;56688;50.234;19.292;2022-07-26T03:27:43;7.60;;;3.90;;
69126;SDS011;56688;50.234;19.292;2022-07-26T03:30:10;9.40;;;4.00;;
69126;SDS011;56688;50.234;19.292;2022-07-26T03:32:37;5.20;;;3.60;;
69126;SDS011;56688;50.234;19.292;2022-07-26T03:35:05;7.80;;;3.90;;
69126;SDS011;56688;50.234;19.292;2022-07-26T03:37:32;6.10;;;3.90;;
69126;SDS011;56688;50.234;19.292;2022-07-26T03:40:13;5.80;;;3.90;;
69126;SDS011;56688;50.234;19.292;2022-07-26T03:42:41;5.50;;;4.00;;
69126;SDS011;56688;50.234;19.292;2022-07-26T03:45:08;6.30;;;3.80;;
69126;SDS011;56688;50.234;19.292;2022-07-26T03:47:35;6.90;;;3.90;;
69126;SDS011;56688;50.234;19.292;2022-07-26T03:50:04;10.40;;;4.00;;
69126;SDS011;56688;50.234;19.292;2022-07-26T03:52:32;6.20;;;3.80;;
69126;SDS011;56688;50.234;19.292;2022-07-26T03:54:59;8.60;;;3.80;;
69126;SDS011;56688;50.234;19.292;2022-07-26T03:57:26;6.50;;;3.80;;
69126;SDS011;56688;50.234;19.292;2022-07-26T03:59:57;5.70;;;3.80;;
69126;SDS011;56688;50.234;19.292;2022-07-26T04:02:24;6.90;;;3.80;;
69126;SDS011;56688;50.234;19.292;2022-07-26T04:04:51;8.20;;;4.30;;
69126;SDS011;56688;50.234;19.292;2022-07-26T04:07:18;10.00;;;4.20;;
69126;SDS011;56688;50.234;19.292;2022-07-26T04:09:46;7.30;;;4.20;;
69126;SDS011;56688;50.234;19.292;2022-07-26T04:12:13;7.10;;;4.00;;
69126;SDS011;56688;50.234;19.292;2022-07-26T04:14:40;11.30;;;4.20;;
69126;SDS011;56688;50.234;19.292;2022-07-26T04:17:08;8.30;;;3.80;;
69126;SDS011;56688;50.234;19.292;2022-07-26T04:19:35;13.10;;;3.90;;
69126;SDS011;56688;50.234;19.292;2022-07-26T04:22:05;8.20;;;4.30;;
69126;SDS011;56688;50.234;19.292;2022-07-26T04:24:32;7.90;;;4.70;;
69126;SDS011;56688;50.234;19.292;2022-07-26T04:26:59;11.10;;;4.50;;
69126;SDS011;56688;50.234;19.292;2022-07-26T04:29:25;8.90;;;4.50;;
69126;SDS011;56688;50.234;19.292;2022-07-26T04:31:53;8.60;;;4.20;;
69126;SDS011;56688;50.234;19.292;2022-07-26T04:34:20;8.50;;;4.50;;
69126;SDS011;56688;50.234;19.292;2022-07-26T04:36:46;11.50;;;4.60;;
69126;SDS011;56688;50.234;19.292;2022-07-26T04:39:13;7.40;;;4.20;;
69126;SDS011;56688;50.234;19.292;2022-07-26T04:41:40;9.10;;;4.00;;
69126;SDS011;56688;50.234;19.292;2022-07-26T04:44:07;6.90;;;4.30;;
69126;SDS011;56688;50.234;19.292;2022-07-26T04:46:34;6.30;;;4.60;;
69126;SDS011;56688;50.234;19.292;2022-07-26T04:49:01;8.30;;;4.50;;
69126;SDS011;56688;50.234;19.292;2022-07-26T04:51:28;7.90;;;4.40;;
69126;SDS011;56688;50.234;19.292;2022-07-26T04:53:55;9.70;;;4.60;;
69126;SDS011;56688;50.234;19.292;2022-07-26T04:56:22;13.20;;;5.30;;
69126;SDS011;56688;50.234;19.292;2022-07-26T04:58:49;12.10;;;5.40;;
69126;SDS011;56688;50.234;19.292;2022-07-26T05:01:16;11.40;;;5.30;;
69126;SDS011;56688;50.234;19.292;2022-07-26T05:03:43;9.00;;;5.30;;
69126;SDS011;56688;50.234;19.292;2022-07-26T05:06:10;8.50;;;5.00;;
69126;SDS011;56688;50.234;19.292;2022-07-26T05:08:36;8.50;;;4.90;;
69126;SDS011;56688;50.234;19.292;2022-07-26T05:11:03;11.80;;;5.20;;
69126;SDS011;56688;50.234;19.292;2022-07-26T05:13:30;8.40;;;4.50;;
69126;SDS011;56688;50.234;19.292;2022-07-26T05:15:58;6.60;;;4.50;;
69126;SDS011;56688;50.234;19.292;2022-07-26T05:18:27;6.90;;;4.10;;
69126;SDS011;56688;50.234;19.292;2022-07-26T05:21:09;8.30;;;4.50;;
69126;SDS011;56688;50.234;19.292;2022-07-26T05:23:36;11.30;;;4.40;;
69126;SDS011;56688;50.234;19.292;2022-07-26T05:26:03;8.60;;;4.30;;
69126;SDS011;56688;50.234;19.292;2022-07-26T05:28:29;9.70;;;4.60;;
69126;SDS011;56688;50.234;19.292;2022-07-26T05:30:56;8.40;;;4.40;;
69126;SDS011;56688;50.234;19.292;2022-07-26T05:33:23;6.10;;;4.00;;
69126;SDS011;56688;50.234;19.292;2022-07-26T05:35:50;6.80;;;4.70;;
69126;SDS011;56688;50.234;19.292;2022-07-26T05:38:17;11.10;;;4.90;;
69126;SDS011;56688;50.234;19.292;2022-07-26T05:40:44;7.60;;;4.40;;
69126;SDS011;56688;50.234;19.292;2022-07-26T05:43:16;10.10;;;5.10;;
69126;SDS011;56688;50.234;19.292;2022-07-26T05:45:43;6.70;;;4.70;;
69126;SDS011;56688;50.234;19.292;2022-07-26T05:48:09;9.60;;;4.60;;
69126;SDS011;56688;50.234;19.292;2022-07-26T05:50:36;11.50;;;4.50;;
69126;SDS011;56688;50.234;19.292;2022-07-26T05:53:03;10.70;;;5.00;;
69126;SDS011;56688;50.234;19.292;2022-07-26T05:55:33;8.10;;;5.10;;
69126;SDS011;56688;50.234;19.292;2022-07-26T05:58:00;11.70;;;5.40;;
69126;SDS011;56688;50.234;19.292;2022-07-26T06:00:27;9.80;;;5.00;;
69126;SDS011;56688;50.234;19.292;2022-07-26T06:02:54;11.20;;;4.90;;
69126;SDS011;56688;50.234;19.292;2022-07-26T06:05:21;14.00;;;5.60;;
69126;SDS011;56688;50.234;19.292;2022-07-26T06:07:47;9.90;;;5.10;;
69126;SDS011;56688;50.234;19.292;2022-07-26T06:10:14;13.00;;;6.10;;
69126;SDS011;56688;50.234;19.292;2022-07-26T06:12:41;17.00;;;6.10;;
69126;SDS011;56688;50.234;19.292;2022-07-26T06:15:08;15.00;;;5.40;;
69126;SDS011;56688;50.234;19.292;2022-07-26T06:17:41;10.50;;;5.40;;
69126;SDS011;56688;50.234;19.292;2022-07-26T06:20:09;12.70;;;6.20;;
69126;SDS011;56688;50.234;19.292;2022-07-26T06:22:36;14.30;;;5.30;;
69126;SDS011;56688;50.234;19.292;2022-07-26T06:25:03;9.90;;;5.60;;
69126;SDS011;56688;50.234;19.292;2022-07-26T06:27:31;7.70;;;5.50;;
69126;SDS011;56688;50.234;19.292;2022-07-26T06:29:58;8.60;;;6.00;;
69126;SDS011;56688;50.234;19.292;2022-07-26T06:32:25;12.30;;;6.20;;
69126;SDS011;56688;50.234;19.292;2022-07-26T06:34:52;9.30;;;5.90;;
69126;SDS011;56688;50.234;19.292;2022-07-26T06:37:20;10.60;;;5.60;;
69126;SDS011;56688;50.234;19.292;2022-07-26T06:39:47;14.20;;;6.40;;
69126;SDS011;56688;50.234;19.292;2022-07-26T06:42:14;13.30;;;6.80;;
69126;SDS011;56688;50.234;19.292;2022-07-26T06:44:40;10.60;;;6.30;;
69126;SDS011;56688;50.234;19.292;2022-07-26T06:47:07;7.40;;;5.50;;
69126;SDS011;56688;50.234;19.292;2022-07-26T06:49:34;14.40;;;6.80;;
69126;SDS011;56688;50.234;19.292;2022-07-26T06:52:01;10.00;;;6.20;;
69126;SDS011;56688;50.234;19.292;2022-07-26T06:54:28;11.80;;;5.80;;
69126;SDS011;56688;50.234;19.292;2022-07-26T06:56:55;14.60;;;6.40;;
69126;SDS011;56688;50.234;19.292;2022-07-26T06:59:22;10.90;;;6.40;;
69126;SDS011;56688;50.234;19.292;2022-07-26T07:01:49;13.60;;;6.90;;
69126;SDS011;56688;50.234;19.292;2022-07-26T07:04:25;14.80;;;6.10;;
69126;SDS011;56688;50.234;19.292;2022-07-26T07:06:52;16.80;;;7.50;;
69126;SDS011;56688;50.234;19.292;2022-07-26T07:09:20;10.60;;;6.90;;
69126;SDS011;56688;50.234;19.292;2022-07-26T07:11:47;14.40;;;7.20;;
69126;SDS011;56688;50.234;19.292;2022-07-26T07:14:21;14.10;;;6.90;;
69126;SDS011;56688;50.234;19.292;2022-07-26T07:16:48;11.50;;;7.30;;
69126;SDS011;56688;50.234;19.292;2022-07-26T07:19:15;20.80;;;7.80;;
69126;SDS011;56688;50.234;19.292;2022-07-26T07:21:42;16.30;;;7.70;;
69126;SDS011;56688;50.234;19.292;2022-07-26T07:24:09;13.80;;;7.80;;
69126;SDS011;56688;50.234;19.292;2022-07-26T07:26:36;15.50;;;7.90;;
69126;SDS011;56688;50.234;19.292;2022-07-26T07:29:03;14.70;;;8.30;;
69126;SDS011;56688;50.234;19.292;2022-07-26T07:31:30;12.70;;;9.10;;
69126;SDS011;56688;50.234;19.292;2022-07-26T07:34:15;15.20;;;9.60;;
69126;SDS011;56688;50.234;19.292;2022-07-26T07:36:45;22.80;;;9.20;;
69126;SDS011;56688;50.234;19.292;2022-07-26T07:39:13;16.60;;;10.30;;
69126;SDS011;56688;50.234;19.292;2022-07-26T07:41:44;13.40;;;10.50;;
69126;SDS011;56688;50.234;19.292;2022-07-26T07:44:12;19.60;;;12.70;;
69126;SDS011;56688;50.234;19.292;2022-07-26T07:46:40;19.00;;;13.10;;
69126;SDS011;56688;50.234;19.292;2022-07-26T07:49:06;20.60;;;12.80;;
69126;SDS011;56688;50.234;19.292;2022-07-26T07:51:34;19.90;;;14.30;;
69126;SDS011;56688;50.234;19.292;2022-07-26T07:54:02;14.50;;;11.60;;
69126;SDS011;56688;50.234;19.292;2022-07-26T07:56:31;17.20;;;13.30;;
69126;SDS011;56688;50.234;19.292;2022-07-26T07:58:59;15.90;;;11.70;;
69126;SDS011;56688;50.234;19.292;2022-07-26T08:01:26;16.50;;;12.40;;
69126;SDS011;56688;50.234;19.292;2022-07-26T08:04:05;16.60;;;12.60;;
69126;SDS011;56688;50.234;19.292;2022-07-26T08:06:32;16.10;;;12.60;;
69126;SDS011;56688;50.234;19.292;2022-07-26T08:08:59;21.60;;;11.20;;
69126;SDS011;56688;50.234;19.292;2022-07-26T08:11:29;18.30;;;11.90;;
69126;SDS011;56688;50.234;19.292;2022-07-26T08:13:59;13.80;;;10.60;;
69126;SDS011;56688;50.234;19.292;2022-07-26T08:16:26;13.30;;;10.50;;
69126;SDS011;56688;50.234;19.292;2022-07-26T08:18:53;15.70;;;10.80;;
69126;SDS011;56688;50.234;19.292;2022-07-26T08:21:25;16.00;;;11.40;;
69126;SDS011;56688;50.234;19.292;2022-07-26T08:23:54;14.10;;;10.00;;
69126;SDS011;56688;50.234;19.292;2022-07-26T08:26:39;11.60;;;10.10;;
69126;SDS011;56688;50.234;19.292;2022-07-26T08:29:06;11.70;;;9.30;;
69126;SDS011;56688;50.234;19.292;2022-07-26T08:31:34;12.40;;;9.70;;
69126;SDS011;56688;50.234;19.292;2022-07-26T08:34:01;10.60;;;9.50;;
69126;SDS011;56688;50.234;19.292;2022-07-26T08:36:28;11.80;;;9.70;;
69126;SDS011;56688;50.234;19.292;2022-07-26T08:38:59;9.60;;;8.40;;
69126;SDS011;56688;50.234;19.292;2022-07-26T08:41:26;12.30;;;8.80;;
69126;SDS011;56688;50.234;19.292;2022-07-26T08:43:54;10.00;;;8.20;;
69126;SDS011;56688;50.234;19.292;2022-07-26T08:46:29;9.60;;;8.60;;
69126;SDS011;56688;50.234;19.292;2022-07-26T08:49:01;9.60;;;7.90;;
69126;SDS011;56688;50.234;19.292;2022-07-26T08:51:30;9.30;;;8.20;;
69126;SDS011;56688;50.234;19.292;2022-07-26T08:53:58;10.90;;;8.40;;
69126;SDS011;56688;50.234;19.292;2022-07-26T08:56:34;8.30;;;7.50;;
69126;SDS011;56688;50.234;19.292;2022-07-26T08:59:03;8.60;;;7.80;;
69126;SDS011;56688;50.234;19.292;2022-07-26T09:01:33;9.60;;;7.80;;
69126;SDS011;56688;50.234;19.292;2022-07-26T09:04:16;8.20;;;7.40;;
69126;SDS011;56688;50.234;19.292;2022-07-26T09:06:59;8.90;;;7.70;;
69126;SDS011;56688;50.234;19.292;2022-07-26T09:09:26;10.90;;;7.40;;
69126;SDS011;56688;50.234;19.292;2022-07-26T09:11:55;9.80;;;8.80;;
69126;SDS011;56688;50.234;19.292;2022-07-26T09:14:25;11.10;;;8.70;;
69126;SDS011;56688;50.234;19.292;2022-07-26T09:17:02;9.50;;;8.60;;
69126;SDS011;56688;50.234;19.292;2022-07-26T09:19:29;11.10;;;8.50;;
69126;SDS011;56688;50.234;19.292;2022-07-26T09:21:56;9.70;;;8.20;;
69126;SDS011;56688;50.234;19.292;2022-07-26T09:27:08;11.70;;;9.40;;
69126;SDS011;56688;50.234;19.292;2022-07-26T09:29:41;10.10;;;9.00;;
69126;SDS011;56688;50.234;19.292;2022-07-26T09:32:10;11.60;;;8.90;;
69126;SDS011;56688;50.234;19.292;2022-07-26T09:34:43;12.80;;;10.30;;
69126;SDS011;56688;50.234;19.292;2022-07-26T09:37:31;13.70;;;11.30;;
69126;SDS011;56688;50.234;19.292;2022-07-26T09:40:02;14.70;;;12.10;;
69126;SDS011;56688;50.234;19.292;2022-07-26T09:42:34;17.00;;;13.60;;
69126;SDS011;56688;50.234;19.292;2022-07-26T09:45:02;18.50;;;13.00;;
69126;SDS011;56688;50.234;19.292;2022-07-26T09:47:40;15.90;;;13.90;;
69126;SDS011;56688;50.234;19.292;2022-07-26T09:50:08;15.10;;;13.50;;
69126;SDS011;56688;50.234;19.292;2022-07-26T09:52:38;14.90;;;12.70;;
69126;SDS011;56688;50.234;19.292;2022-07-26T09:55:06;13.90;;;12.30;;
69126;SDS011;56688;50.234;19.292;2022-07-26T09:57:34;14.30;;;11.80;;
69126;SDS011;56688;50.234;19.292;2022-07-26T10:00:03;12.20;;;10.90;;
69126;SDS011;56688;50.234;19.292;2022-07-26T10:02:33;11.80;;;9.10;;
69126;SDS011;56688;50.234;19.292;2022-07-26T10:05:00;10.00;;;8.90;;
69126;SDS011;56688;50.234;19.292;2022-07-26T10:07:27;9.80;;;8.80;;
69126;SDS011;56688;50.234;19.292;2022-07-26T10:09:59;10.60;;;8.50;;
69126;SDS011;56688;50.234;19.292;2022-07-26T10:12:30;10.90;;;8.80;;
69126;SDS011;56688;50.234;19.292;2022-07-26T10:14:58;8.60;;;7.40;;
69126;SDS011;56688;50.234;19.292;2022-07-26T10:19:58;8.70;;;7.00;;
69126;SDS011;56688;50.234;19.292;2022-07-26T10:22:28;8.00;;;7.20;;
69126;SDS011;56688;50.234;19.292;2022-07-26T10:27:44;8.20;;;7.10;;
69126;SDS011;56688;50.234;19.292;2022-07-26T10:40:34;8.30;;;7.50;;
69126;SDS011;56688;50.234;19.292;2022-07-26T10:43:11;10.30;;;7.80;;
69126;SDS011;56688;50.234;19.292;2022-07-26T10:49:00;10.00;;;8.00;;
69126;SDS011;56688;50.234;19.292;2022-07-26T10:51:33;10.90;;;8.10;;
69126;SDS011;56688;50.234;19.292;2022-07-26T10:56:28;9.60;;;8.10;;
69126;SDS011;56688;50.234;19.292;2022-07-26T10:58:59;11.00;;;9.10;;
69126;SDS011;56688;50.234;19.292;2022-07-26T11:04:18;11.30;;;9.60;;
69126;SDS011;56688;50.234;19.292;2022-07-26T11:06:46;10.40;;;9.00;;
69126;SDS011;56688;50.234;19.292;2022-07-26T11:09:13;14.90;;;9.20;;
69126;SDS011;56688;50.234;19.292;2022-07-26T11:11:41;10.50;;;9.30;;
69126;SDS011;56688;50.234;19.292;2022-07-26T11:14:13;9.60;;;8.50;;
69126;SDS011;56688;50.234;19.292;2022-07-26T11:16:45;10.50;;;8.80;;
69126;SDS011;56688;50.234;19.292;2022-07-26T11:19:14;11.00;;;8.50;;
69126;SDS011;56688;50.234;19.292;2022-07-26T11:21:43;12.20;;;8.90;;
69126;SDS011;56688;50.234;19.292;2022-07-26T11:24:11;10.60;;;8.70;;
69126;SDS011;56688;50.234;19.292;2022-07-26T11:26:40;15.60;;;8.50;;
69126;SDS011;56688;50.234;19.292;2022-07-26T11:29:10;10.70;;;8.20;;
69126;SDS011;56688;50.234;19.292;2022-07-26T11:31:44;9.80;;;8.20;;
69126;SDS011;56688;50.234;19.292;2022-07-26T11:34:28;10.40;;;8.40;;
69126;SDS011;56688;50.234;19.292;2022-07-26T11:37:00;10.00;;;8.80;;
69126;SDS011;56688;50.234;19.292;2022-07-26T11:39:31;9.70;;;7.60;;
69126;SDS011;56688;50.234;19.292;2022-07-26T11:44:32;10.50;;;7.50;;
69126;SDS011;56688;50.234;19.292;2022-07-26T11:47:08;9.90;;;7.60;;
69126;SDS011;56688;50.234;19.292;2022-07-26T11:49:36;7.80;;;6.50;;
69126;SDS011;56688;50.234;19.292;2022-07-26T11:52:27;6.40;;;5.70;;
69126;SDS011;56688;50.234;19.292;2022-07-26T11:54:56;7.30;;;5.80;;
69126;SDS011;56688;50.234;19.292;2022-07-26T11:57:27;8.00;;;6.00;;
69126;SDS011;56688;50.234;19.292;2022-07-26T11:59:57;10.60;;;5.70;;
69126;SDS011;56688;50.234;19.292;2022-07-26T12:02:25;7.70;;;5.60;;
69126;SDS011;56688;50.234;19.292;2022-07-26T12:07:51;8.90;;;5.10;;
69126;SDS011;56688;50.234;19.292;2022-07-26T12:10:20;9.30;;;5.50;;
69126;SDS011;56688;50.234;19.292;2022-07-26T12:12:47;7.20;;;5.40;;
69126;SDS011;56688;50.234;19.292;2022-07-26T12:15:14;5.10;;;4.60;;
69126;SDS011;56688;50.234;19.292;2022-07-26T12:17:57;6.30;;;5.10;;
69126;SDS011;56688;50.234;19.292;2022-07-26T12:20:25;10.40;;;5.00;;
69126;SDS011;56688;50.234;19.292;2022-07-26T12:22:54;7.90;;;5.40;;
69126;SDS011;56688;50.234;19.292;2022-07-26T12:25:23;6.80;;;4.80;;
69126;SDS011;56688;50.234;19.292;2022-07-26T12:27:51;6.50;;;5.60;;
69126;SDS011;56688;50.234;19.292;2022-07-26T12:30:18;7.50;;;5.30;;
69126;SDS011;56688;50.234;19.292;2022-07-26T12:32:46;6.40;;;5.00;;
69126;SDS011;56688;50.234;19.292;2022-07-26T12:35:15;5.00;;;3.80;;
69126;SDS011;56688;50.234;19.292;2022-07-26T12:40:13;8.20;;;4.70;;
69126;SDS011;56688;50.234;19.292;2022-07-26T12:42:42;7.10;;;4.50;;
69126;SDS011;56688;50.234;19.292;2022-07-26T12:45:26;5.90;;;4.50;;
69126;SDS011;56688;50.234;19.292;2022-07-26T12:47:55;8.50;;;4.80;;
69126;SDS011;56688;50.234;19.292;2022-07-26T12:50:24;7.10;;;5.00;;
69126;SDS011;56688;50.234;19.292;2022-07-26T12:55:38;6.60;;;5.00;;
69126;SDS011;56688;50.234;19.292;2022-07-26T12:58:05;6.80;;;4.90;;
69126;SDS011;56688;50.234;19.292;2022-07-26T13:00:32;9.70;;;4.90;;
69126;SDS011;56688;50.234;19.292;2022-07-26T13:02:59;5.60;;;4.60;;
69126;SDS011;56688;50.234;19.292;2022-07-26T13:05:25;6.60;;;5.10;;
69126;SDS011;56688;50.234;19.292;2022-07-26T13:07:52;6.00;;;4.60;;
69126;SDS011;56688;50.234;19.292;2022-07-26T13:10:21;6.50;;;4.90;;
69126;SDS011;56688;50.234;19.292;2022-07-26T13:13:00;7.40;;;5.20;;
69126;SDS011;56688;50.234;19.292;2022-07-26T13:15:27;6.60;;;4.60;;
69126;SDS011;56688;50.234;19.292;2022-07-26T13:18:03;6.60;;;5.50;;
69126;SDS011;56688;50.234;19.292;2022-07-26T13:20:31;8.90;;;5.20;;
69126;SDS011;56688;50.234;19.292;2022-07-26T13:22:58;13.90;;;6.10;;
69126;SDS011;56688;50.234;19.292;2022-07-26T13:25:25;8.40;;;5.70;;
69126;SDS011;56688;50.234;19.292;2022-07-26T13:28:03;7.30;;;5.20;;
69126;SDS011;56688;50.234;19.292;2022-07-26T13:30:30;7.00;;;6.00;;
69126;SDS011;56688;50.234;19.292;2022-07-26T13:32:57;7.20;;;5.50;;
69126;SDS011;56688;50.234;19.292;2022-07-26T13:35:24;8.50;;;5.70;;
69126;SDS011;56688;50.234;19.292;2022-07-26T13:37:51;7.90;;;5.40;;
69126;SDS011;56688;50.234;19.292;2022-07-26T13:40:18;6.40;;;5.10;;
69126;SDS011;56688;50.234;19.292;2022-07-26T13:42:47;10.90;;;5.90;;
69126;SDS011;56688;50.234;19.292;2022-07-26T13:45:15;8.00;;;5.70;;
69126;SDS011;56688;50.234;19.292;2022-07-26T13:47:42;7.40;;;4.80;;
69126;SDS011;56688;50.234;19.292;2022-07-26T13:50:09;6.10;;;4.60;;
69126;SDS011;56688;50.234;19.292;2022-07-26T13:52:36;6.50;;;4.70;;
69126;SDS011;56688;50.234;19.292;2022-07-26T13:55:03;6.80;;;5.00;;
69126;SDS011;56688;50.234;19.292;2022-07-26T13:57:32;7.20;;;4.90;;
69126;SDS011;56688;50.234;19.292;2022-07-26T14:00:19;5.70;;;4.70;;
69126;SDS011;56688;50.234;19.292;2022-07-26T14:02:45;7.60;;;4.90;;
69126;SDS011;56688;50.234;19.292;2022-07-26T14:05:13;5.20;;;4.10;;
69126;SDS011;56688;50.234;19.292;2022-07-26T14:07:40;5.80;;;3.30;;
69126;SDS011;56688;50.234;19.292;2022-07-26T14:10:08;7.60;;;3.40;;
69126;SDS011;56688;50.234;19.292;2022-07-26T14:12:35;5.00;;;4.20;;
69126;SDS011;56688;50.234;19.292;2022-07-26T14:15:03;7.80;;;4.50;;
69126;SDS011;56688;50.234;19.292;2022-07-26T14:17:39;8.00;;;4.70;;
69126;SDS011;56688;50.234;19.292;2022-07-26T14:20:06;6.40;;;4.50;;
69126;SDS011;56688;50.234;19.292;2022-07-26T14:22:33;8.20;;;4.50;;
69126;SDS011;56688;50.234;19.292;2022-07-26T14:25:00;6.90;;;4.30;;
69126;SDS011;56688;50.234;19.292;2022-07-26T14:27:27;6.10;;;4.20;;
69126;SDS011;56688;50.234;19.292;2022-07-26T14:29:54;6.40;;;4.30;;
69126;SDS011;56688;50.234;19.292;2022-07-26T14:32:21;6.30;;;4.20;;
69126;SDS011;56688;50.234;19.292;2022-07-26T14:34:48;7.80;;;4.70;;
69126;SDS011;56688;50.234;19.292;2022-07-26T14:37:16;7.10;;;4.80;;
69126;SDS011;56688;50.234;19.292;2022-07-26T14:40:03;7.30;;;5.10;;
69126;SDS011;56688;50.234;19.292;2022-07-26T14:42:32;6.50;;;4.50;;
69126;SDS011;56688;50.234;19.292;2022-07-26T14:44:59;8.30;;;5.20;;
69126;SDS011;56688;50.234;19.292;2022-07-26T14:47:26;8.10;;;4.60;;
69126;SDS011;56688;50.234;19.292;2022-07-26T14:49:53;6.10;;;5.10;;
69126;SDS011;56688;50.234;19.292;2022-07-26T14:52:20;8.00;;;5.30;;
69126;SDS011;56688;50.234;19.292;2022-07-26T14:54:47;8.20;;;5.50;;
69126;SDS011;56688;50.234;19.292;2022-07-26T14:57:14;6.90;;;5.20;;
69126;SDS011;56688;50.234;19.292;2022-07-26T14:59:41;8.20;;;5.40;;
69126;SDS011;56688;50.234;19.292;2022-07-26T15:02:08;8.70;;;5.30;;
69126;SDS011;56688;50.234;19.292;2022-07-26T15:04:37;8.40;;;5.30;;
69126;SDS011;56688;50.234;19.292;2022-07-26T15:07:04;9.10;;;5.80;;
69126;SDS011;56688;50.234;19.292;2022-07-26T15:09:31;7.20;;;5.50;;
69126;SDS011;56688;50.234;19.292;2022-07-26T15:11:57;7.00;;;5.90;;
69126;SDS011;56688;50.234;19.292;2022-07-26T15:14:26;7.70;;;5.90;;